Main page
METAR-TAF:

METAR-TAF

Airports :

Ponta Porã International Airport

Ponta Porã, Mato Grosso do Sul, Brazil

latitude: 22-33S, longitude: 055-42W, elevation: 657 m

Current weather observation

The report was made 9 hours and 38 minutes ago, at 21:00 UTC
Wind 6 kt from the North
Temperature 23°C
Humidity 44%
Pressure 1016 hPa
Visibility 10 km or more
no clouds below 1500 m and no cumulonimbus

METAR: SBPP 122100Z 01006KT CAVOK 23/10 Q1016

Time: 02:38 (06:38 UTC)

Forecast

The report was made 4 hours and 43 minutes ago, at 01:55 UTC
Forecast valid from 13 at 06 UTC to 14 at 06 UTC
Wind 15 kt from the North/Northeast
Visibility 10 km or more
no clouds below 1500 m and no cumulonimbus

TAF: SBPP 130155Z 1306/1406 03015KT CAVOK TN13/1308Z TX26/1317Z RMK PGL

Weather observations and forecasts of more than 4000 airports (METAR and TAF reports).

The available stations are represented by yellow and red dots on the map.

Hover mouse over dot to see the name of the station.

Then click to see weather observations and forecasts.

To change the map : click on the green buttons with a black cross to zoom in, on the green button with a dash to zoom out, or on the green arrows for adjacent maps.


METAR-TAF: